Terminal Aerodrome Forecast
Issued by NWS Twin Cities, MN

Home | Current Version | Previous Version | Graphics & Text | Print | Product List | Glossary On
Versions: 1 2 3 4 5 6 7 8 9 10 11 12 13 14 15 16 17
000
FTUS43 KMPX 010329 AAA
TAFSTC
TAF AMD
KSTC 010329Z 0103/0124 19009KT 6SM -SN BKN035 OVC050
     FM010900 25006KT P6SM SCT030 BKN100
     FM011400 26009KT P6SM SCT150=

USA.gov is the U.S. government's official web portal to all federal, state and local government web resources and services.